Time;durP1;ratioP1;P1;durP2;ratioP2;P2;SDS_P1;SDS_P2;PMS_P1;PMS_P2;Temp;Humidity;BMP_temperature;BMP_pressure;BME280_temperature;BME280_humidity;BME280_pressure;Samples;Min_cycle;Max_cycle;Signal;HPM_P1;HPM_P2
2022/11/04 00:01:06;;;;;;;0.90;0.90;;;;;;;;;;8271673;28;20524;-63
2022/11/04 00:05:06;;;;;;;1.03;0.80;;;;;;;;;;8271678;28;20650;-63
2022/11/04 00:09:08;;;;;;;2.70;1.00;;;;;;;;;;8272805;28;20028;-63
2022/11/04 00:13:08;;;;;;;2.05;0.80;;;;;;;;;;8272177;28;20108;-63
2022/11/04 00:17:21;;;;;;;1.90;1.00;;;;;;;;;;8271605;28;20057;-62
2022/11/04 00:30:00;;;;;;;2.20;1.02;;;;;;;;;;8269740;28;20048;-63
2022/11/04 00:34:00;;;;;;;0.90;0.80;;;;;;;;;;8272257;28;20034;-63
2022/11/04 00:38:00;;;;;;;0.90;0.87;;;;;;;;;;8267841;28;20022;-63
2022/11/04 00:42:01;;;;;;;2.37;1.03;;;;;;;;;;8270806;28;20277;-63
2022/11/04 00:46:01;;;;;;;4.65;1.05;;;;;;;;;;8270818;28;20276;-63
2022/11/04 00:50:01;;;;;;;1.75;1.10;;;;;;;;;;8270700;28;20057;-63
2022/11/04 00:54:01;;;;;;;1.83;1.13;;;;;;;;;;8269354;28;20953;-62
2022/11/04 00:58:02;;;;;;;1.05;1.00;;;;;;;;;;8270021;28;20093;-63
2022/11/04 01:02:02;;;;;;;3.75;1.10;;;;;;;;;;8271063;28;20280;-63
2022/11/04 01:06:03;;;;;;;1.13;1.00;;;;;;;;;;8270272;28;20033;-63
2022/11/04 01:10:04;;;;;;;1.58;1.33;;;;;;;;;;8269312;28;20985;-62
2022/11/04 01:14:04;;;;;;;2.95;1.25;;;;;;;;;;8266861;28;20025;-62
2022/11/04 01:18:04;;;;;;;1.42;1.20;;;;;;;;;;8268829;28;20061;-62
2022/11/04 01:22:05;;;;;;;2.20;1.40;;;;;;;;;;8268651;28;20026;-62
2022/11/04 01:26:06;;;;;;;1.80;1.27;;;;;;;;;;8269888;28;20026;-62
2022/11/04 01:30:07;;;;;;;1.67;1.33;;;;;;;;;;8271080;28;20279;-63
2022/11/04 01:34:07;;;;;;;1.75;1.02;;;;;;;;;;8269173;28;20026;-62
2022/11/04 01:38:08;;;;;;;2.50;1.30;;;;;;;;;;8268658;28;20017;-64
2022/11/04 01:42:11;;;;;;;2.15;1.20;;;;;;;;;;8267923;28;20053;-63
2022/11/04 01:46:19;;;;;;;2.30;1.30;;;;;;;;;;8269949;28;20046;-63
2022/11/04 01:50:21;;;;;;;3.15;1.20;;;;;;;;;;8270783;28;20037;-62
2022/11/04 01:54:22;;;;;;;3.83;1.38;;;;;;;;;;8269374;28;20045;-63
2022/11/04 01:58:24;;;;;;;5.15;1.73;;;;;;;;;;8266857;28;20021;-63
2022/11/04 02:02:25;;;;;;;2.92;1.52;;;;;;;;;;8275175;28;20909;-63
2022/11/04 02:06:25;;;;;;;3.47;1.67;;;;;;;;;;8275900;28;20034;-62
2022/11/04 02:10:26;;;;;;;2.92;1.50;;;;;;;;;;8273396;28;20031;-63
2022/11/04 02:14:26;;;;;;;4.38;1.48;;;;;;;;;;8274488;28;20030;-62
2022/11/04 02:18:27;;;;;;;4.88;1.48;;;;;;;;;;8272999;28;20962;-62
2022/11/04 02:22:45;;;;;;;5.18;1.70;;;;;;;;;;8273845;28;20025;-62
2022/11/04 02:26:52;;;;;;;7.95;1.70;;;;;;;;;;8275885;28;20103;-62
2022/11/04 02:30:58;;;;;;;5.45;1.50;;;;;;;;;;8271988;28;20513;-63
2022/11/04 02:35:03;;;;;;;3.88;1.80;;;;;;;;;;8274158;28;20029;-63
2022/11/04 02:39:14;;;;;;;5.15;1.45;;;;;;;;;;8281558;28;20137;-63
2022/11/04 02:43:24;;;;;;;5.45;1.63;;;;;;;;;;8273039;28;20037;-62
2022/11/04 02:47:27;;;;;;;2.13;1.40;;;;;;;;;;8272320;28;20046;-63
2022/11/04 02:51:32;;;;;;;6.40;1.40;;;;;;;;;;8273833;28;20425;-63
2022/11/04 02:55:42;;;;;;;6.63;1.60;;;;;;;;;;8274175;28;20290;-63
2022/11/04 02:59:47;;;;;;;7.20;1.58;;;;;;;;;;8273280;28;20030;-63
2022/11/04 03:03:49;;;;;;;8.15;1.58;;;;;;;;;;8272501;28;20073;-63
2022/11/04 03:07:51;;;;;;;4.35;1.58;;;;;;;;;;8274099;28;20032;-62
2022/11/04 03:11:54;;;;;;;9.98;1.60;;;;;;;;;;8270783;28;20025;-63
2022/11/04 03:15:59;;;;;;;4.30;1.33;;;;;;;;;;8272274;28;20131;-63
2022/11/04 03:20:02;;;;;;;6.53;1.33;;;;;;;;;;8272448;28;20021;-63
2022/11/04 03:24:02;;;;;;;4.97;1.35;;;;;;;;;;8271390;28;20025;-63
2022/11/04 03:28:05;;;;;;;5.45;1.40;;;;;;;;;;8272386;28;20064;-63
2022/11/04 03:32:15;;;;;;;7.50;1.80;;;;;;;;;;8271780;28;20041;-63
2022/11/04 03:36:15;;;;;;;5.20;1.15;;;;;;;;;;8272018;28;20025;-63
2022/11/04 03:40:17;;;;;;;4.43;1.33;;;;;;;;;;8272325;28;20024;-63
2022/11/04 03:44:17;;;;;;;4.88;1.27;;;;;;;;;;8271492;28;20025;-62
2022/11/04 03:48:17;;;;;;;7.13;1.70;;;;;;;;;;8271631;28;20033;-62
2022/11/04 03:52:18;;;;;;;6.23;1.43;;;;;;;;;;8272451;28;20819;-62
2022/11/04 03:56:27;;;;;;;4.15;1.10;;;;;;;;;;8273104;28;20030;-63
2022/11/04 04:00:30;;;;;;;6.57;1.45;;;;;;;;;;8270116;28;20826;-63
2022/11/04 04:04:30;;;;;;;2.88;1.17;;;;;;;;;;8272148;28;20037;-62
2022/11/04 04:08:43;;;;;;;2.65;1.40;;;;;;;;;;8272564;28;20026;-62
2022/11/04 04:12:44;;;;;;;7.97;1.80;;;;;;;;;;8270861;28;20029;-62
2022/11/04 04:16:46;;;;;;;6.43;2.40;;;;;;;;;;8267808;28;20481;-62
2022/11/04 04:20:46;;;;;;;6.13;1.65;;;;;;;;;;8270171;28;20025;-63
2022/11/04 04:29:19;;;;;;;6.18;1.70;;;;;;;;;;8224522;28;20438;-63
2022/11/04 04:33:19;;;;;;;6.55;1.48;;;;;;;;;;8268289;28;20069;-62
2022/11/04 04:37:21;;;;;;;4.57;1.48;;;;;;;;;;8269580;28;21015;-62
2022/11/04 04:45:48;;;;;;;3.55;1.38;;;;;;;;;;8270972;28;20040;-63
2022/11/04 04:49:52;;;;;;;8.90;1.60;;;;;;;;;;8270668;28;20037;-63
2022/11/04 04:53:52;;;;;;;3.35;1.58;;;;;;;;;;8268882;28;20022;-63
2022/11/04 04:57:52;;;;;;;3.15;1.20;;;;;;;;;;8270777;28;20080;-62
2022/11/04 05:01:52;;;;;;;3.42;1.20;;;;;;;;;;8270470;28;20037;-63
2022/11/04 05:05:52;;;;;;;2.45;0.98;;;;;;;;;;8270856;28;20029;-63
2022/11/04 05:09:53;;;;;;;4.50;1.30;;;;;;;;;;8269675;28;20025;-63
2022/11/04 05:13:53;;;;;;;8.23;1.60;;;;;;;;;;8271444;28;20072;-62
2022/11/04 05:17:54;;;;;;;2.60;1.20;;;;;;;;;;8269168;28;20524;-62
2022/11/04 05:21:54;;;;;;;6.35;1.40;;;;;;;;;;8271052;28;20029;-63
2022/11/04 05:25:57;;;;;;;6.10;1.42;;;;;;;;;;8269519;28;20452;-63
2022/11/04 05:29:57;;;;;;;1.88;1.13;;;;;;;;;;8269854;28;20052;-63
2022/11/04 05:33:58;;;;;;;2.75;1.23;;;;;;;;;;8268721;28;20038;-63
2022/11/04 05:37:58;;;;;;;6.55;1.40;;;;;;;;;;8275736;28;20085;-62
2022/11/04 05:41:59;;;;;;;3.23;1.50;;;;;;;;;;8276831;28;20029;-63
2022/11/04 05:46:00;;;;;;;4.88;1.40;;;;;;;;;;8275970;28;20261;-63
2022/11/04 05:50:00;;;;;;;4.15;1.27;;;;;;;;;;8274753;28;20025;-63
2022/11/04 05:54:00;;;;;;;4.45;1.40;;;;;;;;;;8277254;28;20026;-64
2022/11/04 05:58:01;;;;;;;6.05;1.33;;;;;;;;;;8276141;28;20371;-63
2022/11/04 06:02:02;;;;;;;4.22;1.25;;;;;;;;;;8281413;28;20037;-62
2022/11/04 06:06:02;;;;;;;3.20;1.30;;;;;;;;;;8275883;28;20029;-62
2022/11/04 06:10:02;;;;;;;5.50;1.10;;;;;;;;;;8274781;28;20505;-63
2022/11/04 06:14:03;;;;;;;5.47;1.67;;;;;;;;;;8274148;28;20326;-64
2022/11/04 06:18:04;;;;;;;5.53;1.00;;;;;;;;;;8274811;28;20132;-63
2022/11/04 06:22:04;;;;;;;2.63;1.10;;;;;;;;;;8274405;28;20084;-63
2022/11/04 06:26:04;;;;;;;4.63;2.05;;;;;;;;;;8270572;28;20055;-63
2022/11/04 06:30:05;;;;;;;3.00;1.02;;;;;;;;;;8271859;28;20021;-63
2022/11/04 06:34:05;;;;;;;6.53;1.50;;;;;;;;;;8271494;28;20021;-63
2022/11/04 06:38:05;;;;;;;5.47;1.25;;;;;;;;;;8275080;28;20017;-62
2022/11/04 06:42:05;;;;;;;4.63;1.05;;;;;;;;;;8274822;28;20032;-62
2022/11/04 06:46:06;;;;;;;4.27;1.30;;;;;;;;;;8271168;28;20091;-63
2022/11/04 06:50:06;;;;;;;4.55;1.30;;;;;;;;;;8271967;28;20278;-63
2022/11/04 06:54:06;;;;;;;3.75;1.08;;;;;;;;;;8270686;28;20049;-63
2022/11/04 06:58:07;;;;;;;3.78;1.20;;;;;;;;;;8271797;28;20076;-63
2022/11/04 07:02:09;;;;;;;6.38;1.30;;;;;;;;;;8270904;28;20042;-63
2022/11/04 07:06:10;;;;;;;7.40;1.10;;;;;;;;;;8270766;28;20770;-63
2022/11/04 07:10:10;;;;;;;8.50;1.50;;;;;;;;;;8270548;28;20876;-63
2022/11/04 07:14:11;;;;;;;7.97;1.23;;;;;;;;;;8270040;28;20120;-63
2022/11/04 07:18:11;;;;;;;2.80;1.15;;;;;;;;;;8270427;28;20061;-63
2022/11/04 07:22:11;;;;;;;5.00;1.15;;;;;;;;;;8268490;28;20443;-63
2022/11/04 07:26:12;;;;;;;5.32;1.38;;;;;;;;;;8271260;28;20477;-63
2022/11/04 07:30:12;;;;;;;7.13;2.90;;;;;;;;;;8270068;28;20443;-63
2022/11/04 07:34:12;;;;;;;13.07;3.37;;;;;;;;;;8270004;28;20029;-64
2022/11/04 07:38:13;;;;;;;4.53;1.60;;;;;;;;;;8270219;28;20384;-63
2022/11/04 07:42:13;;;;;;;5.78;1.70;;;;;;;;;;8268782;28;20048;-63
2022/11/04 07:46:13;;;;;;;2.33;1.30;;;;;;;;;;8269403;28;20127;-65
2022/11/04 07:50:13;;;;;;;3.63;1.10;;;;;;;;;;8268350;28;20033;-63
2022/11/04 07:54:14;;;;;;;2.60;0.97;;;;;;;;;;8270997;28;20025;-63
2022/11/04 07:58:14;;;;;;;5.03;1.50;;;;;;;;;;8269410;28;20283;-63
2022/11/04 08:02:14;;;;;;;3.92;1.30;;;;;;;;;;8271294;28;20045;-63
2022/11/04 08:06:15;;;;;;;3.42;1.10;;;;;;;;;;8270731;28;20022;-63
2022/11/04 08:10:15;;;;;;;6.75;1.08;;;;;;;;;;8271520;28;20140;-62
2022/11/04 08:14:16;;;;;;;4.13;1.30;;;;;;;;;;8271617;28;20499;-62
2022/11/04 08:18:16;;;;;;;6.00;1.40;;;;;;;;;;8269072;28;20034;-63
2022/11/04 08:22:16;;;;;;;3.37;1.30;;;;;;;;;;8271051;28;20735;-62
2022/11/04 08:26:18;;;;;;;3.92;1.30;;;;;;;;;;8270887;28;20287;-63
2022/11/04 08:30:18;;;;;;;5.30;1.98;;;;;;;;;;8271097;28;20057;-63
2022/11/04 08:34:18;;;;;;;6.45;2.17;;;;;;;;;;8268935;28;20030;-63
2022/11/04 08:38:20;;;;;;;5.75;1.70;;;;;;;;;;8270518;28;20021;-63
2022/11/04 08:42:20;;;;;;;2.90;1.40;;;;;;;;;;8271748;28;20075;-63
2022/11/04 08:46:20;;;;;;;3.40;1.80;;;;;;;;;;8268364;28;20091;-63
2022/11/04 08:50:26;;;;;;;5.18;1.50;;;;;;;;;;8271222;28;20120;-63
2022/11/04 08:54:26;;;;;;;4.15;1.40;;;;;;;;;;8269066;28;20068;-63
2022/11/04 08:58:27;;;;;;;6.18;1.50;;;;;;;;;;8270469;28;20536;-63
2022/11/04 09:02:27;;;;;;;4.78;1.48;;;;;;;;;;8269921;28;20029;-63
2022/11/04 09:06:32;;;;;;;5.00;1.17;;;;;;;;;;8267944;28;20100;-62
2022/11/04 09:10:32;;;;;;;4.82;1.63;;;;;;;;;;8269083;28;20308;-62
2022/11/04 09:14:32;;;;;;;2.87;1.40;;;;;;;;;;8272587;28;20029;-63
2022/11/04 09:18:33;;;;;;;4.68;1.33;;;;;;;;;;8275597;28;20284;-62
2022/11/04 09:22:33;;;;;;;3.83;1.33;;;;;;;;;;8276740;28;20051;-63
2022/11/04 09:26:34;;;;;;;4.35;1.23;;;;;;;;;;8275045;28;20035;-63
2022/11/04 09:30:35;;;;;;;4.45;1.05;;;;;;;;;;8277819;28;20033;-63
2022/11/04 09:34:35;;;;;;;3.88;1.10;;;;;;;;;;8274980;28;20099;-63
2022/11/04 09:38:36;;;;;;;3.45;1.40;;;;;;;;;;8275919;28;20025;-64
2022/11/04 09:42:39;;;;;;;4.75;1.20;;;;;;;;;;8273772;28;20104;-63
2022/11/04 09:46:40;;;;;;;3.17;1.07;;;;;;;;;;8276352;28;20072;-63
2022/11/04 09:50:45;;;;;;;3.25;1.23;;;;;;;;;;8273196;28;20022;-62
2022/11/04 09:54:54;;;;;;;5.43;1.55;;;;;;;;;;8275986;28;20022;-62
2022/11/04 09:58:54;;;;;;;5.05;1.40;;;;;;;;;;8273476;28;20018;-63
2022/11/04 10:02:55;;;;;;;2.85;1.40;;;;;;;;;;8272378;28;20044;-63
2022/11/04 10:07:13;;;;;;;3.92;1.60;;;;;;;;;;8272101;28;20029;-63
2022/11/04 10:11:16;;;;;;;5.70;1.27;;;;;;;;;;8269588;28;20683;-63
2022/11/04 10:15:40;;;;;;;4.57;1.52;;;;;;;;;;8272978;28;20041;-63
2022/11/04 10:19:46;;;;;;;6.77;1.90;;;;;;;;;;8240382;28;20041;-62
2022/11/04 10:24:04;;;;;;;5.75;1.70;;;;;;;;;;8272171;28;20037;-62
2022/11/04 10:28:06;;;;;;;5.28;1.50;;;;;;;;;;8271667;28;20026;-63
2022/11/04 10:32:13;;;;;;;7.18;1.65;;;;;;;;;;8280486;28;20034;-63
2022/11/04 10:36:15;;;;;;;8.02;2.00;;;;;;;;;;8270045;28;20026;-63
2022/11/04 10:40:22;;;;;;;6.38;2.55;;;;;;;;;;8270821;28;20057;-63
2022/11/04 10:44:24;;;;;;;10.60;5.30;;;;;;;;;;8270475;28;20075;-63
2022/11/04 10:48:27;;;;;;;12.43;5.18;;;;;;;;;;8269411;28;20038;-63
2022/11/04 10:52:27;;;;;;;9.43;5.05;;;;;;;;;;8272730;28;20395;-63
2022/11/04 10:56:33;;;;;;;11.45;4.70;;;;;;;;;;8271530;28;20050;-63
2022/11/04 11:00:33;;;;;;;8.40;4.03;;;;;;;;;;8270400;28;20046;-63
2022/11/04 11:04:35;;;;;;;6.32;3.08;;;;;;;;;;8271173;28;20029;-63
2022/11/04 11:08:38;;;;;;;3.83;1.70;;;;;;;;;;8270725;28;20030;-63
2022/11/04 11:12:45;;;;;;;3.47;1.70;;;;;;;;;;8269082;28;20944;-63
2022/11/04 11:16:47;;;;;;;5.45;2.53;;;;;;;;;;8270072;28;20281;-63
2022/11/04 11:20:48;;;;;;;4.35;2.55;;;;;;;;;;8269466;28;20059;-63
2022/11/04 11:24:48;;;;;;;6.28;2.10;;;;;;;;;;8269599;28;20227;-63
2022/11/04 11:28:55;;;;;;;4.55;1.60;;;;;;;;;;8266489;28;20072;-63
2022/11/04 11:32:57;;;;;;;6.38;1.98;;;;;;;;;;8265774;28;20050;-62
2022/11/04 11:37:02;;;;;;;9.70;4.05;;;;;;;;;;8266196;28;20029;-62
2022/11/04 11:41:07;;;;;;;12.70;5.10;;;;;;;;;;8265558;28;20029;-63
2022/11/04 11:45:15;;;;;;;11.65;3.90;;;;;;;;;;8265080;28;20017;-62
2022/11/04 11:49:27;;;;;;;12.07;4.20;;;;;;;;;;8266437;28;20383;-62
2022/11/04 11:53:33;;;;;;;5.75;1.75;;;;;;;;;;8265917;28;20013;-63
2022/11/04 11:57:39;;;;;;;14.98;5.22;;;;;;;;;;8263973;28;20040;-62
2022/11/04 12:01:49;;;;;;;10.77;4.75;;;;;;;;;;8263514;28;20512;-63
2022/11/04 12:05:58;;;;;;;7.05;2.33;;;;;;;;;;8265625;28;20037;-64
2022/11/04 12:10:06;;;;;;;4.32;1.67;;;;;;;;;;8264159;28;20052;-63
2022/11/04 12:14:18;;;;;;;5.90;1.90;;;;;;;;;;8262804;28;20068;-62
2022/11/04 12:18:22;;;;;;;2.83;1.20;;;;;;;;;;8260598;28;20037;-63
2022/11/04 12:22:25;;;;;;;4.87;2.10;;;;;;;;;;8262752;28;20809;-62
2022/11/04 12:26:26;;;;;;;4.78;1.35;;;;;;;;;;8261376;28;20523;-64
2022/11/04 12:30:28;;;;;;;3.25;1.55;;;;;;;;;;8264821;28;20049;-64
2022/11/04 12:34:30;;;;;;;3.88;1.77;;;;;;;;;;8263194;28;20104;-63
2022/11/04 12:38:49;;;;;;;3.25;1.30;;;;;;;;;;8262263;28;20676;-64
2022/11/04 12:43:12;;;;;;;5.28;1.52;;;;;;;;;;8260118;28;20030;-64
2022/11/04 12:47:27;;;;;;;5.10;2.20;;;;;;;;;;8262735;28;20817;-64
2022/11/04 12:51:30;;;;;;;5.00;1.50;;;;;;;;;;8262261;28;20025;-64
2022/11/04 12:55:34;;;;;;;3.22;1.50;;;;;;;;;;8262869;28;20577;-64
2022/11/04 12:59:34;;;;;;;4.80;1.65;;;;;;;;;;8262854;28;20021;-65
2022/11/04 13:03:56;;;;;;;3.08;1.15;;;;;;;;;;8261843;28;20669;-64
2022/11/04 13:08:00;;;;;;;2.70;1.23;;;;;;;;;;8263312;28;20032;-64
2022/11/04 13:12:10;;;;;;;2.13;1.30;;;;;;;;;;8262658;28;20026;-64
2022/11/04 13:16:10;;;;;;;3.47;1.10;;;;;;;;;;8264130;28;20038;-64
2022/11/04 13:20:14;;;;;;;3.38;1.27;;;;;;;;;;8262293;28;20025;-64
2022/11/04 13:24:14;;;;;;;1.77;1.00;;;;;;;;;;8264102;28;20156;-64
2022/11/04 13:28:16;;;;;;;3.17;1.50;;;;;;;;;;8263002;28;20091;-64
2022/11/04 13:32:24;;;;;;;4.13;0.75;;;;;;;;;;8268744;28;20626;-65
2022/11/04 13:36:24;;;;;;;4.15;1.13;;;;;;;;;;8271485;28;20018;-64
2022/11/04 13:40:32;;;;;;;1.10;0.68;;;;;;;;;;8268625;28;20828;-64
2022/11/04 13:44:36;;;;;;;2.22;1.23;;;;;;;;;;8269432;28;20029;-64
2022/11/04 13:48:41;;;;;;;2.67;1.53;;;;;;;;;;8268625;28;20112;-64
2022/11/04 13:52:47;;;;;;;4.03;1.80;;;;;;;;;;8277784;28;20026;-64
2022/11/04 13:56:47;;;;;;;1.80;1.30;;;;;;;;;;8271379;28;20113;-64
2022/11/04 14:01:06;;;;;;;3.00;1.17;;;;;;;;;;8276517;28;20053;-64
2022/11/04 14:05:27;;;;;;;5.25;1.30;;;;;;;;;;8275284;28;20025;-63
2022/11/04 14:09:35;;;;;;;2.92;1.05;;;;;;;;;;8255470;28;20034;-64
2022/11/04 14:13:41;;;;;;;1.35;1.00;;;;;;;;;;8272956;28;20148;-64
2022/11/04 14:17:41;;;;;;;1.60;0.90;;;;;;;;;;8275436;28;20068;-64
2022/11/04 14:22:01;;;;;;;4.93;1.02;;;;;;;;;;8275996;28;20026;-64
2022/11/04 14:26:06;;;;;;;2.95;1.38;;;;;;;;;;8275268;28;20117;-63
2022/11/04 14:30:25;;;;;;;3.45;1.40;;;;;;;;;;8268946;28;20609;-64
2022/11/04 14:34:35;;;;;;;6.82;2.90;;;;;;;;;;8271917;28;20670;-64
2022/11/04 14:38:36;;;;;;;5.88;3.38;;;;;;;;;;8270208;28;20080;-63
2022/11/04 14:42:49;;;;;;;3.67;2.00;;;;;;;;;;8272806;28;20029;-69
2022/11/04 14:46:52;;;;;;;3.20;1.42;;;;;;;;;;8270762;28;20034;-63
2022/11/04 14:50:53;;;;;;;4.00;1.60;;;;;;;;;;8271128;28;20904;-64
2022/11/04 14:54:55;;;;;;;2.88;1.67;;;;;;;;;;8272211;28;20025;-64
2022/11/04 14:59:04;;;;;;;3.25;1.70;;;;;;;;;;8271474;28;20053;-64
2022/11/04 15:03:16;;;;;;;3.15;1.77;;;;;;;;;;8271511;28;20042;-64
2022/11/04 15:07:31;;;;;;;2.85;1.60;;;;;;;;;;8270513;28;20099;-64
2022/11/04 15:15:58;;;;;;;3.13;1.20;;;;;;;;;;8269468;28;20157;-64
2022/11/04 15:19:59;;;;;;;4.50;1.13;;;;;;;;;;8269943;28;20044;-64
2022/11/04 15:24:00;;;;;;;2.20;1.00;;;;;;;;;;8270684;28;20034;-64
2022/11/04 15:28:00;;;;;;;2.33;1.13;;;;;;;;;;8269017;28;20041;-65
2022/11/04 15:32:02;;;;;;;4.95;1.30;;;;;;;;;;8262813;28;20589;-63
2022/11/04 15:36:03;;;;;;;2.22;1.30;;;;;;;;;;8270310;28;20901;-64
2022/11/04 15:40:05;;;;;;;2.40;1.05;;;;;;;;;;8270457;28;20024;-64
2022/11/04 15:44:16;;;;;;;1.98;0.95;;;;;;;;;;8270448;28;20136;-64
2022/11/04 15:48:33;;;;;;;5.90;1.40;;;;;;;;;;8269678;28;20079;-64
2022/11/04 15:52:33;;;;;;;5.15;2.80;;;;;;;;;;8269202;28;20100;-63
2022/11/04 15:56:48;;;;;;;3.10;2.40;;;;;;;;;;8265755;28;20326;-63
2022/11/04 16:00:52;;;;;;;4.47;2.00;;;;;;;;;;8265295;28;20316;-63
2022/11/04 16:04:52;;;;;;;;;;;;;;;;;;8272605;28;20029;-63
2022/11/04 16:09:00;;;;;;;1.98;1.40;;;;;;;;;;8268610;28;20363;-63
2022/11/04 16:13:02;;;;;;;6.00;2.60;;;;;;;;;;8266534;28;20033;-64
2022/11/04 16:17:03;;;;;;;5.28;2.75;;;;;;;;;;8264854;28;20160;-63
2022/11/04 16:21:05;;;;;;;3.05;1.65;;;;;;;;;;8268722;28;20171;-64
2022/11/04 16:25:06;;;;;;;2.80;1.02;;;;;;;;;;8268663;28;20021;-65
2022/11/04 16:29:08;;;;;;;1.95;1.00;;;;;;;;;;8262945;28;20033;-65
2022/11/04 16:33:15;;;;;;;1.92;0.80;;;;;;;;;;8263421;28;20044;-64
2022/11/04 16:37:15;;;;;;;1.75;0.80;;;;;;;;;;8268389;28;20588;-64
2022/11/04 16:41:16;;;;;;;1.13;0.82;;;;;;;;;;8266534;28;20025;-64
2022/11/04 16:45:28;;;;;;;1.58;0.73;;;;;;;;;;8267049;28;20029;-64
2022/11/04 16:49:29;;;;;;;1.70;0.90;;;;;;;;;;8266907;28;20587;-64
2022/11/04 16:53:29;;;;;;;2.40;1.00;;;;;;;;;;8268918;28;20017;-64
2022/11/04 16:57:29;;;;;;;1.50;0.88;;;;;;;;;;8266623;28;20399;-64
2022/11/04 17:01:30;;;;;;;0.70;0.70;;;;;;;;;;8265621;28;20136;-64
2022/11/04 17:05:30;;;;;;;2.53;0.75;;;;;;;;;;8266126;28;20115;-64
2022/11/04 17:09:31;;;;;;;2.05;0.85;;;;;;;;;;8266603;28;20586;-64
2022/11/04 17:13:32;;;;;;;1.73;1.30;;;;;;;;;;8260478;28;20033;-64
2022/11/04 17:17:32;;;;;;;4.40;2.10;;;;;;;;;;8263513;28;20442;-64
2022/11/04 17:21:32;;;;;;;1.48;1.15;;;;;;;;;;8259383;28;20320;-64
2022/11/04 17:25:32;;;;;;;3.08;1.30;;;;;;;;;;8261343;28;20036;-63
2022/11/04 17:29:35;;;;;;;8.73;1.50;;;;;;;;;;8260948;28;20029;-64
2022/11/04 17:33:35;;;;;;;3.00;2.28;;;;;;;;;;8265297;28;20516;-68
2022/11/04 17:37:35;;;;;;;2.65;2.17;;;;;;;;;;8268228;28;20030;-63
2022/11/04 17:46:32;;;;;;;3.97;1.40;;;;;;;;;;8265006;28;20115;-64
2022/11/04 17:50:29;;;;;;;1.30;1.13;;;;;;;;;;8258295;28;20936;-64
2022/11/04 17:54:30;;;;;;;2.65;1.10;;;;;;;;;;8273641;28;20048;-64
2022/11/04 17:58:36;;;;;;;1.97;1.10;;;;;;;;;;8264189;28;20425;-64
2022/11/04 18:02:37;;;;;;;2.05;0.90;;;;;;;;;;8265366;28;20342;-64
2022/11/04 18:06:37;;;;;;;1.95;0.90;;;;;;;;;;8261208;28;20120;-63
2022/11/04 18:10:37;;;;;;;5.55;1.30;;;;;;;;;;8263430;28;20187;-64
2022/11/04 18:14:37;;;;;;;3.35;1.10;;;;;;;;;;8260361;28;20195;-64
2022/11/04 18:18:38;;;;;;;2.53;1.00;;;;;;;;;;8261564;28;20363;-64
2022/11/04 18:22:38;;;;;;;5.45;1.20;;;;;;;;;;8262361;28;20029;-64
2022/11/04 18:26:38;;;;;;;1.67;1.00;;;;;;;;;;8260919;28;20022;-64
2022/11/04 18:30:39;;;;;;;4.35;1.10;;;;;;;;;;8262678;28;20143;-65
2022/11/04 18:34:39;;;;;;;2.90;1.77;;;;;;;;;;8261447;28;20094;-64
2022/11/04 18:38:40;;;;;;;3.58;1.10;;;;;;;;;;8261838;28;20032;-64
2022/11/04 18:42:40;;;;;;;2.00;0.80;;;;;;;;;;8260070;28;20129;-63
2022/11/04 18:46:40;;;;;;;1.30;0.98;;;;;;;;;;8263226;28;20281;-64
2022/11/04 18:50:41;;;;;;;1.23;0.80;;;;;;;;;;8260272;28;20064;-64
2022/11/04 18:54:41;;;;;;;2.10;1.00;;;;;;;;;;8257086;28;21060;-64
2022/11/04 18:58:44;;;;;;;0.77;0.77;;;;;;;;;;8267904;28;20029;-64
2022/11/04 19:02:44;;;;;;;0.80;0.80;;;;;;;;;;8269461;28;20033;-64
2022/11/04 19:06:44;;;;;;;3.78;1.35;;;;;;;;;;8279142;28;20509;-65
2022/11/04 19:10:45;;;;;;;3.08;1.30;;;;;;;;;;8268189;28;20032;-63
2022/11/04 19:14:45;;;;;;;1.80;1.00;;;;;;;;;;8267896;28;20029;-64
2022/11/04 19:18:48;;;;;;;1.95;1.10;;;;;;;;;;8266313;28;20840;-64
2022/11/04 19:22:48;;;;;;;3.30;1.10;;;;;;;;;;8267769;28;20025;-64
2022/11/04 19:26:48;;;;;;;1.88;1.00;;;;;;;;;;8269457;28;20026;-64
2022/11/04 19:30:59;;;;;;;1.92;1.23;;;;;;;;;;8266681;28;20041;-64
2022/11/04 19:34:59;;;;;;;1.77;1.10;;;;;;;;;;8268492;28;20076;-63
2022/11/04 19:38:59;;;;;;;2.45;1.17;;;;;;;;;;8268932;28;20018;-63
2022/11/04 19:43:09;;;;;;;3.83;1.30;;;;;;;;;;8267574;28;20064;-65
2022/11/04 19:47:10;;;;;;;1.58;1.10;;;;;;;;;;8266788;28;20034;-64
2022/11/04 19:51:13;;;;;;;1.37;1.10;;;;;;;;;;8265746;28;20737;-65
2022/11/04 19:55:13;;;;;;;2.70;1.40;;;;;;;;;;8266702;28;20280;-65
2022/11/04 19:59:14;;;;;;;3.33;1.77;;;;;;;;;;8270027;28;20047;-65
2022/11/04 20:03:14;;;;;;;3.55;1.40;;;;;;;;;;8267608;28;20038;-64
2022/11/04 20:07:15;;;;;;;1.42;1.30;;;;;;;;;;8266030;28;20335;-64
2022/11/04 20:11:16;;;;;;;1.48;1.33;;;;;;;;;;8266821;28;20022;-65
2022/11/04 20:15:16;;;;;;;2.33;1.60;;;;;;;;;;8260169;28;20049;-64
2022/11/04 20:19:17;;;;;;;3.50;1.30;;;;;;;;;;8264627;28;20048;-64
2022/11/04 20:23:17;;;;;;;2.92;1.50;;;;;;;;;;8269365;28;20036;-65
2022/11/04 20:27:17;;;;;;;1.95;1.80;;;;;;;;;;8258039;28;20080;-65
2022/11/04 20:31:19;;;;;;;4.85;2.35;;;;;;;;;;8266863;28;20041;-64
2022/11/04 20:35:19;;;;;;;8.05;4.30;;;;;;;;;;8265442;28;20144;-64
2022/11/04 20:39:20;;;;;;;16.25;7.45;;;;;;;;;;8265144;28;20128;-65
2022/11/04 20:43:20;;;;;;;9.70;4.97;;;;;;;;;;8258780;28;20644;-65
2022/11/04 20:47:21;;;;;;;4.53;2.80;;;;;;;;;;8262440;28;20030;-64
2022/11/04 20:51:22;;;;;;;2.33;1.73;;;;;;;;;;8261759;28;20901;-64
2022/11/04 20:55:22;;;;;;;3.00;2.60;;;;;;;;;;8260153;28;20026;-67
2022/11/04 20:59:23;;;;;;;4.47;2.50;;;;;;;;;;8261509;28;21047;-65
2022/11/04 21:03:23;;;;;;;4.57;2.40;;;;;;;;;;8259034;28;20659;-65
2022/11/04 21:07:24;;;;;;;2.80;2.40;;;;;;;;;;8258947;28;20113;-65
2022/11/04 21:11:26;;;;;;;4.22;1.95;;;;;;;;;;8256324;28;20022;-65
2022/11/04 21:15:39;;;;;;;4.45;1.55;;;;;;;;;;8259192;28;20033;-65
2022/11/04 21:19:39;;;;;;;1.50;1.40;;;;;;;;;;8259051;28;20587;-65
2022/11/04 21:23:39;;;;;;;3.38;1.70;;;;;;;;;;8254610;28;20033;-65
2022/11/04 21:27:40;;;;;;;1.73;1.63;;;;;;;;;;8265767;28;20171;-65
2022/11/04 21:31:41;;;;;;;1.60;1.50;;;;;;;;;;8264438;28;20096;-65
2022/11/04 21:35:46;;;;;;;1.75;1.50;;;;;;;;;;8267477;28;20025;-65
2022/11/04 21:39:47;;;;;;;2.15;1.50;;;;;;;;;;8262373;28;20028;-65
2022/11/04 21:43:47;;;;;;;2.63;1.80;;;;;;;;;;8263924;28;20038;-65
2022/11/04 21:47:47;;;;;;;1.73;1.60;;;;;;;;;;8263692;28;20037;-65
2022/11/04 21:51:48;;;;;;;5.63;1.80;;;;;;;;;;8262801;28;20133;-65
2022/11/04 21:55:48;;;;;;;1.90;1.70;;;;;;;;;;8263852;28;20285;-65
2022/11/04 21:59:48;;;;;;;4.10;1.87;;;;;;;;;;8266442;28;20100;-64
2022/11/04 22:03:53;;;;;;;3.10;1.90;;;;;;;;;;8264267;28;20291;-64
2022/11/04 22:12:12;;;;;;;4.13;1.92;;;;;;;;;;8266462;28;20040;-65
2022/11/04 22:16:17;;;;;;;2.65;1.75;;;;;;;;;;8268877;28;20057;-64
2022/11/04 22:20:17;;;;;;;2.28;1.77;;;;;;;;;;8273679;28;21098;-64
2022/11/04 22:24:17;;;;;;;2.45;1.83;;;;;;;;;;8275524;28;20057;-64
2022/11/04 22:28:18;;;;;;;4.70;1.70;;;;;;;;;;8273684;28;20083;-65
2022/11/04 22:32:18;;;;;;;2.92;1.95;;;;;;;;;;8273875;28;20514;-64
2022/11/04 22:36:19;;;;;;;3.28;1.80;;;;;;;;;;8275801;28;20606;-64
2022/11/04 22:40:20;;;;;;;1.83;1.73;;;;;;;;;;8274140;28;20048;-65
2022/11/04 22:44:20;;;;;;;3.45;1.90;;;;;;;;;;8274507;28;20058;-64
2022/11/04 22:48:20;;;;;;;2.08;1.77;;;;;;;;;;8274269;28;20042;-65
2022/11/04 22:52:21;;;;;;;1.88;1.52;;;;;;;;;;8274083;28;21028;-64
2022/11/04 22:56:21;;;;;;;1.90;1.80;;;;;;;;;;8273160;28;20026;-64
2022/11/04 23:00:21;;;;;;;2.97;2.00;;;;;;;;;;8272088;28;20021;-65
2022/11/04 23:04:21;;;;;;;4.15;1.70;;;;;;;;;;8276424;28;20037;-64
2022/11/04 23:08:22;;;;;;;5.32;2.15;;;;;;;;;;8273860;28;20071;-65
2022/11/04 23:25:40;;;;;;;2.05;1.85;;;;;;;;;;8273376;28;20032;-64
2022/11/04 23:38:18;;;;;;;3.88;2.22;;;;;;;;;;8272534;28;20585;-64
2022/11/04 23:42:19;;;;;;;2.55;2.13;;;;;;;;;;8274896;28;20022;-64
